createdAt,value
2023-06-21T00:00:05.132Z,95056.00
2023-06-21T00:01:05.188Z,95054.00
2023-06-21T00:02:05.123Z,95052.00
2023-06-21T00:03:05.257Z,95052.00
2023-06-21T00:04:05.451Z,95052.00
2023-06-21T00:05:05.288Z,95056.00
2023-06-21T00:06:05.288Z,95064.00
2023-06-21T00:07:05.463Z,95056.00
2023-06-21T00:08:05.442Z,95058.00
2023-06-21T00:09:05.507Z,95060.00
2023-06-21T00:10:05.578Z,95058.00
2023-06-21T00:11:05.556Z,95060.00
2023-06-21T00:12:05.635Z,95064.00
2023-06-21T00:13:05.639Z,95062.00
2023-06-21T00:14:05.684Z,95064.00
2023-06-21T00:15:05.724Z,95064.00
2023-06-21T00:16:05.694Z,95058.00
2023-06-21T00:17:05.768Z,95062.00
2023-06-21T00:18:05.844Z,95060.00
2023-06-21T00:19:05.759Z,95064.00
2023-06-21T00:20:05.883Z,95062.00
2023-06-21T00:21:05.943Z,95056.00
2023-06-21T00:22:06.055Z,95060.00
2023-06-21T00:23:06.072Z,95062.00
2023-06-21T00:24:06.171Z,95064.00
2023-06-21T00:25:06.249Z,95062.00
2023-06-21T00:26:06.278Z,95062.00
2023-06-21T00:27:06.330Z,95054.00
2023-06-21T00:28:06.373Z,95056.00
2023-06-21T00:29:06.456Z,95060.00
2023-06-21T00:30:06.431Z,95062.00
2023-06-21T00:31:06.500Z,95064.00
2023-06-21T00:32:06.592Z,95070.00
2023-06-21T00:33:06.642Z,95068.00
2023-06-21T00:34:06.647Z,95070.00
2023-06-21T00:35:06.680Z,95072.00
2023-06-21T00:36:06.601Z,95064.00
2023-06-21T00:37:06.689Z,95062.00
2023-06-21T00:38:06.670Z,95064.00
2023-06-21T00:39:06.741Z,95068.00
2023-06-21T00:40:06.635Z,95066.00
2023-06-21T00:41:06.612Z,95068.00
2023-06-21T00:42:06.647Z,95068.00
2023-06-21T00:43:06.729Z,95068.00
2023-06-21T00:44:06.602Z,95070.00
2023-06-21T00:45:06.649Z,95070.00
2023-06-21T00:46:06.694Z,95068.00
2023-06-21T00:47:06.761Z,95060.00
2023-06-21T00:48:06.732Z,95060.00
2023-06-21T00:49:06.718Z,95058.00
2023-06-21T00:50:06.646Z,95064.00
2023-06-21T00:51:06.659Z,95066.00
2023-06-21T00:52:06.704Z,95066.00
2023-06-21T00:53:06.659Z,95070.00
2023-06-21T00:54:06.634Z,95068.00
2023-06-21T00:55:06.638Z,95070.00
2023-06-21T00:56:06.648Z,95074.00
2023-06-21T00:57:06.687Z,95068.00
2023-06-21T00:58:06.666Z,95068.00
2023-06-21T00:59:06.763Z,95070.00
2023-06-21T01:00:06.715Z,95068.00
2023-06-21T01:01:06.897Z,95062.00
2023-06-21T01:02:06.894Z,95064.00
2023-06-21T01:03:06.954Z,95070.00
2023-06-21T01:04:06.901Z,95072.00
2023-06-21T01:05:06.988Z,95078.00
2023-06-21T01:06:06.916Z,95078.00
2023-06-21T01:07:06.927Z,95078.00
2023-06-21T01:08:07.045Z,95074.00
2023-06-21T01:09:07.051Z,95078.00
2023-06-21T01:10:07.141Z,95081.00
2023-06-21T01:11:07.197Z,95085.00
2023-06-21T01:12:07.273Z,95085.00
2023-06-21T01:13:07.276Z,95083.00
2023-06-21T01:14:07.321Z,95085.00
2023-06-21T01:15:07.307Z,95085.00
2023-06-21T01:16:07.253Z,95083.00
2023-06-21T01:17:07.370Z,95085.00
2023-06-21T01:18:07.380Z,95085.00
2023-06-21T01:19:07.405Z,95089.00
2023-06-21T01:20:07.485Z,95091.00
2023-06-21T01:21:07.567Z,95089.00
2023-06-21T01:22:07.537Z,95093.00
2023-06-21T01:23:07.614Z,95089.00
2023-06-21T01:24:07.762Z,95087.00
2023-06-21T01:25:07.698Z,95095.00
2023-06-21T01:26:07.771Z,95097.00
2023-06-21T01:27:07.897Z,95101.00
2023-06-21T01:28:07.851Z,95101.00
2023-06-21T01:29:07.806Z,95101.00
2023-06-21T01:30:07.817Z,95101.00
2023-06-21T01:31:07.899Z,95107.00
2023-06-21T01:32:07.847Z,95107.00
2023-06-21T01:33:07.833Z,95105.00
2023-06-21T01:34:07.792Z,95107.00
2023-06-21T01:35:10.137Z,95105.00
2023-06-21T01:36:07.792Z,95105.00
2023-06-21T01:37:07.830Z,95111.00
2023-06-21T01:38:08.638Z,95115.00
2023-06-21T01:39:07.760Z,95107.00
2023-06-21T01:40:07.737Z,95105.00
2023-06-21T01:41:07.710Z,95113.00
2023-06-21T01:42:07.705Z,95119.00
2023-06-21T01:43:07.785Z,95115.00
2023-06-21T01:44:07.770Z,95111.00
2023-06-21T01:45:07.680Z,95113.00
2023-06-21T01:46:07.884Z,95113.00
2023-06-21T01:47:07.720Z,95113.00
2023-06-21T01:48:07.725Z,95109.00
2023-06-21T01:49:07.692Z,95107.00
2023-06-21T01:50:07.685Z,95109.00
2023-06-21T01:51:07.741Z,95111.00
2023-06-21T01:52:07.679Z,95113.00
2023-06-21T01:53:07.654Z,95113.00
2023-06-21T01:54:07.732Z,95113.00
2023-06-21T01:55:07.692Z,95113.00
2023-06-21T01:56:07.738Z,95115.00
2023-06-21T01:57:07.650Z,95111.00
2023-06-21T01:58:07.666Z,95117.00
2023-06-21T01:59:07.664Z,95121.00
2023-06-21T02:00:07.687Z,95127.00
2023-06-21T02:01:07.713Z,95127.00
2023-06-21T02:02:07.745Z,95128.00
2023-06-21T02:03:07.783Z,95130.00
2023-06-21T02:04:07.796Z,95134.00
2023-06-21T02:05:07.885Z,95132.00
2023-06-21T02:06:07.914Z,95134.00
2023-06-21T02:07:07.964Z,95134.00
2023-06-21T02:08:08.070Z,95132.00
2023-06-21T02:09:08.082Z,95132.00
2023-06-21T02:10:08.119Z,95142.00
2023-06-21T02:11:08.164Z,95134.00
2023-06-21T02:12:08.206Z,95142.00
2023-06-21T02:13:08.181Z,95144.00
2023-06-21T02:14:08.201Z,95146.00
2023-06-21T02:15:08.155Z,95148.00
2023-06-21T02:16:08.105Z,95148.00
2023-06-21T02:17:08.646Z,95150.00
2023-06-21T02:18:08.145Z,95148.00
2023-06-21T02:19:08.125Z,95150.00
2023-06-21T02:20:08.166Z,95148.00
2023-06-21T02:21:08.162Z,95150.00
2023-06-21T02:22:08.120Z,95150.00
2023-06-21T02:23:08.156Z,95148.00
2023-06-21T02:24:08.177Z,95152.00
2023-06-21T02:25:08.098Z,95154.00
2023-06-21T02:26:08.139Z,95154.00
2023-06-21T02:27:08.177Z,95154.00
2023-06-21T02:28:08.110Z,95148.00
2023-06-21T02:29:08.108Z,95156.00
2023-06-21T02:30:08.106Z,95164.00
2023-06-21T02:31:08.099Z,95162.00
2023-06-21T02:32:08.031Z,95164.00
2023-06-21T02:33:08.046Z,95168.00
2023-06-21T02:34:08.121Z,95168.00
2023-06-21T02:35:08.043Z,95168.00
2023-06-21T02:36:08.055Z,95168.00
2023-06-21T02:37:08.014Z,95172.00
2023-06-21T02:38:08.152Z,95170.00
2023-06-21T02:39:08.028Z,95174.00
2023-06-21T02:40:08.032Z,95172.00
2023-06-21T02:41:08.077Z,95170.00
2023-06-21T02:42:08.664Z,95172.00
2023-06-21T02:43:08.016Z,95174.00
2023-06-21T02:44:07.994Z,95174.00
2023-06-21T02:45:08.001Z,95172.00
2023-06-21T02:46:08.078Z,95174.00
2023-06-21T02:47:07.998Z,95176.00
2023-06-21T02:48:08.140Z,95176.00
2023-06-21T02:49:08.026Z,95180.00
2023-06-21T02:50:07.980Z,95183.00
2023-06-21T02:51:07.994Z,95189.00
2023-06-21T02:52:08.014Z,95191.00
2023-06-21T02:53:08.063Z,95191.00
2023-06-21T02:54:08.075Z,95185.00
2023-06-21T02:55:08.130Z,95191.00
2023-06-21T02:56:08.159Z,95195.00
2023-06-21T02:57:08.130Z,95193.00
2023-06-21T02:58:08.143Z,95193.00
2023-06-21T02:59:08.168Z,95195.00
2023-06-21T03:00:08.125Z,95195.00
2023-06-21T03:01:08.210Z,95189.00
2023-06-21T03:02:08.190Z,95187.00
2023-06-21T03:03:08.283Z,95185.00
2023-06-21T03:04:08.141Z,95185.00
2023-06-21T03:05:08.186Z,95187.00
2023-06-21T03:06:08.103Z,95187.00
2023-06-21T03:07:08.057Z,95183.00
2023-06-21T03:08:08.090Z,95185.00
2023-06-21T03:09:08.008Z,95191.00
2023-06-21T03:10:08.020Z,95193.00
2023-06-21T03:11:08.061Z,95197.00
2023-06-21T03:12:08.031Z,95199.00
2023-06-21T03:13:08.067Z,95195.00
2023-06-21T03:14:08.043Z,95191.00
2023-06-21T03:15:08.021Z,95193.00
2023-06-21T03:16:08.018Z,95197.00
2023-06-21T03:17:08.022Z,95197.00
2023-06-21T03:18:08.053Z,95201.00
2023-06-21T03:19:08.112Z,95201.00
2023-06-21T03:20:08.056Z,95205.00
2023-06-21T03:21:07.996Z,95209.00
2023-06-21T03:22:07.976Z,95207.00
2023-06-21T03:23:07.957Z,95207.00
2023-06-21T03:24:07.994Z,95207.00
2023-06-21T03:25:07.912Z,95205.00
2023-06-21T03:26:07.921Z,95213.00
2023-06-21T03:27:07.920Z,95211.00
2023-06-21T03:28:07.928Z,95211.00
2023-06-21T03:29:08.047Z,95215.00
2023-06-21T03:30:07.940Z,95213.00
2023-06-21T03:31:07.913Z,95213.00
2023-06-21T03:32:07.928Z,95215.00
2023-06-21T03:33:08.009Z,95217.00
2023-06-21T03:34:07.943Z,95215.00
2023-06-21T03:35:07.901Z,95215.00
2023-06-21T03:36:07.922Z,95215.00
2023-06-21T03:37:07.980Z,95217.00
2023-06-21T03:38:08.053Z,95219.00
2023-06-21T03:39:08.033Z,95217.00
2023-06-21T03:40:08.179Z,95217.00
2023-06-21T03:41:08.134Z,95219.00
2023-06-21T03:42:08.218Z,95219.00
2023-06-21T03:43:08.208Z,95217.00
2023-06-21T03:44:08.256Z,95223.00
2023-06-21T03:45:08.289Z,95225.00
2023-06-21T03:46:08.266Z,95227.00
2023-06-21T03:47:08.163Z,95229.00
2023-06-21T03:48:08.250Z,95229.00
2023-06-21T03:49:08.208Z,95231.00
2023-06-21T03:50:08.213Z,95231.00
2023-06-21T03:51:08.136Z,95233.00
2023-06-21T03:52:09.171Z,95231.00
2023-06-21T03:53:08.181Z,95231.00
2023-06-21T03:54:08.166Z,95231.00
2023-06-21T03:55:08.144Z,95235.00
2023-06-21T03:56:08.183Z,95235.00
2023-06-21T03:57:08.147Z,95235.00
2023-06-21T03:58:08.122Z,95236.00
2023-06-21T03:59:08.117Z,95236.00
2023-06-21T04:00:08.121Z,95236.00
2023-06-21T04:01:08.147Z,95240.00
2023-06-21T04:02:08.126Z,95238.00
2023-06-21T04:03:08.245Z,95235.00
2023-06-21T04:04:08.189Z,95236.00
2023-06-21T04:05:08.104Z,95235.00
2023-06-21T04:06:08.043Z,95238.00
2023-06-21T04:07:08.076Z,95236.00
2023-06-21T04:08:08.229Z,95238.00
2023-06-21T04:09:09.039Z,95238.00
2023-06-21T04:10:07.989Z,95242.00
2023-06-21T04:11:08.026Z,95240.00
2023-06-21T04:12:08.075Z,95240.00
2023-06-21T04:13:08.053Z,95242.00
2023-06-21T04:14:08.052Z,95240.00
2023-06-21T04:15:08.092Z,95240.00
2023-06-21T04:16:08.028Z,95242.00
2023-06-21T04:17:08.009Z,95240.00
2023-06-21T04:18:08.128Z,95240.00
2023-06-21T04:19:08.048Z,95242.00
2023-06-21T04:20:08.032Z,95242.00
2023-06-21T04:21:07.990Z,95244.00
2023-06-21T04:22:07.973Z,95246.00
2023-06-21T04:23:08.042Z,95246.00
2023-06-21T04:24:08.008Z,95242.00
2023-06-21T04:25:07.979Z,95242.00
2023-06-21T04:26:07.909Z,95242.00
2023-06-21T04:27:07.949Z,95240.00
2023-06-21T04:28:08.063Z,95236.00
2023-06-21T04:29:07.978Z,95233.00
2023-06-21T04:30:07.942Z,95229.00
2023-06-21T04:31:07.929Z,95235.00
2023-06-21T04:32:08.005Z,95233.00
2023-06-21T04:33:08.081Z,95236.00
2023-06-21T04:34:08.093Z,95236.00
2023-06-21T04:35:08.139Z,95238.00
2023-06-21T04:36:08.234Z,95242.00
2023-06-21T04:37:08.226Z,95244.00
2023-06-21T04:38:08.323Z,95238.00
2023-06-21T04:39:08.390Z,95242.00
2023-06-21T04:40:16.964Z,95240.00
2023-06-21T04:41:09.354Z,95240.00
2023-06-21T04:42:08.339Z,95240.00
2023-06-21T04:43:08.377Z,95244.00
2023-06-21T04:44:08.326Z,95240.00
2023-06-21T04:45:08.307Z,95244.00
2023-06-21T04:46:08.386Z,95246.00
2023-06-21T04:47:08.279Z,95246.00
2023-06-21T04:48:08.336Z,95248.00
2023-06-21T04:49:08.367Z,95248.00
2023-06-21T04:50:20.258Z,95248.00
2023-06-21T04:51:09.271Z,95244.00
2023-06-21T04:52:08.238Z,95244.00
2023-06-21T04:53:08.316Z,95244.00
2023-06-21T04:54:08.352Z,95242.00
2023-06-21T04:55:08.224Z,95240.00
2023-06-21T04:56:08.261Z,95242.00
2023-06-21T04:57:08.193Z,95248.00
2023-06-21T04:58:08.321Z,95246.00
2023-06-21T04:59:08.221Z,95242.00
2023-06-21T05:01:37.891Z,95246.00
2023-06-21T05:02:27.778Z,95244.00
2023-06-21T05:03:27.846Z,95244.00
2023-06-21T05:04:27.750Z,95244.00
2023-06-21T05:05:27.699Z,95248.00
2023-06-21T05:06:27.704Z,95246.00
2023-06-21T05:07:27.705Z,95250.00
2023-06-21T05:08:27.706Z,95250.00
2023-06-21T05:09:27.713Z,95246.00
2023-06-21T05:10:27.957Z,95250.00
2023-06-21T05:11:27.693Z,95252.00
2023-06-21T05:12:27.647Z,95250.00
2023-06-21T05:13:27.711Z,95256.00
2023-06-21T05:14:27.660Z,95254.00
2023-06-21T05:15:27.665Z,95258.00
2023-06-21T05:16:27.779Z,95256.00
2023-06-21T05:17:27.663Z,95258.00
2023-06-21T05:18:27.750Z,95262.00
2023-06-21T05:19:27.677Z,95260.00
2023-06-21T05:20:27.888Z,95260.00
2023-06-21T05:21:27.673Z,95262.00
2023-06-21T05:22:27.646Z,95262.00
2023-06-21T05:23:28.007Z,95260.00
2023-06-21T05:24:28.923Z,95260.00
2023-06-21T05:25:27.891Z,95256.00
2023-06-21T05:26:27.709Z,95254.00
2023-06-21T05:27:27.605Z,95256.00
2023-06-21T05:28:27.630Z,95258.00
2023-06-21T05:29:27.554Z,95258.00
2023-06-21T05:30:27.760Z,95264.00
2023-06-21T05:31:27.740Z,95264.00
2023-06-21T05:32:27.677Z,95260.00
2023-06-21T05:33:28.070Z,95262.00
2023-06-21T05:34:27.614Z,95264.00
2023-06-21T05:35:27.661Z,95262.00
2023-06-21T05:36:27.698Z,95262.00
2023-06-21T05:37:27.847Z,95270.00
2023-06-21T05:38:27.602Z,95268.00
2023-06-21T05:39:28.422Z,95272.00
2023-06-21T05:40:27.915Z,95270.00
2023-06-21T05:41:28.430Z,95274.00
2023-06-21T05:42:27.572Z,95272.00
2023-06-21T05:43:28.117Z,95268.00
2023-06-21T05:44:27.502Z,95266.00
2023-06-21T05:46:57.721Z,95272.00
2023-06-21T05:47:46.986Z,95274.00
2023-06-21T05:48:46.985Z,95272.00
2023-06-21T05:49:47.020Z,95272.00
2023-06-21T05:50:47.952Z,95270.00
2023-06-21T05:51:47.340Z,95276.00
2023-06-21T05:52:48.073Z,95276.00
2023-06-21T05:53:47.278Z,95274.00
2023-06-21T05:54:46.886Z,95280.00
2023-06-21T05:55:47.085Z,95283.00
2023-06-21T05:56:46.929Z,95282.00
2023-06-21T05:57:46.927Z,95287.00
2023-06-21T05:58:47.893Z,95285.00
2023-06-21T05:59:46.969Z,95285.00
2023-06-21T06:00:46.889Z,95289.00
2023-06-21T06:01:46.866Z,95291.00
2023-06-21T06:02:47.061Z,95295.00
2023-06-21T06:03:47.554Z,95293.00
2023-06-21T06:04:46.825Z,95295.00
2023-06-21T06:05:46.931Z,95295.00
2023-06-21T06:06:46.931Z,95293.00
2023-06-21T06:07:47.037Z,95295.00
2023-06-21T06:08:46.749Z,95295.00
2023-06-21T06:09:46.883Z,95295.00
2023-06-21T06:10:46.770Z,95295.00
2023-06-21T06:11:46.894Z,95297.00
2023-06-21T06:12:46.995Z,95301.00
2023-06-21T06:13:46.978Z,95299.00
2023-06-21T06:14:47.703Z,95299.00
2023-06-21T06:15:47.418Z,95299.00
2023-06-21T06:16:46.896Z,95297.00
2023-06-21T06:17:46.835Z,95299.00
2023-06-21T06:18:46.926Z,95303.00
2023-06-21T06:19:47.250Z,95299.00
2023-06-21T06:20:48.682Z,95299.00
2023-06-21T06:21:47.080Z,95299.00
2023-06-21T06:22:47.145Z,95301.00
2023-06-21T06:23:46.937Z,95299.00
2023-06-21T06:24:46.977Z,95297.00
2023-06-21T06:25:47.197Z,95299.00
2023-06-21T06:26:47.787Z,95297.00
2023-06-21T06:27:47.059Z,95299.00
2023-06-21T06:28:47.101Z,95299.00
2023-06-21T06:29:47.543Z,95299.00
2023-06-21T06:30:47.966Z,95297.00
2023-06-21T06:31:47.345Z,95299.00
2023-06-21T06:32:47.088Z,95303.00
2023-06-21T06:33:48.040Z,95299.00
2023-06-21T06:34:47.244Z,95297.00
2023-06-21T06:35:47.352Z,95303.00
2023-06-21T06:36:56.191Z,95299.00
2023-06-21T06:43:13.310Z,95303.00
2023-06-21T06:44:04.393Z,95303.00
2023-06-21T06:45:04.470Z,95303.00
2023-06-21T06:46:04.513Z,95301.00
2023-06-21T06:47:04.281Z,95299.00
2023-06-21T06:48:04.387Z,95301.00
2023-06-21T06:49:04.315Z,95297.00
2023-06-21T06:50:04.246Z,95293.00
2023-06-21T06:51:04.574Z,95297.00
2023-06-21T06:52:04.287Z,95297.00
2023-06-21T06:53:04.898Z,95297.00
2023-06-21T06:54:04.517Z,95295.00
2023-06-21T06:55:04.454Z,95293.00
2023-06-21T06:56:04.601Z,95295.00
2023-06-21T06:57:04.494Z,95291.00
2023-06-21T06:58:06.569Z,95295.00
2023-06-21T06:59:04.514Z,95295.00
2023-06-21T07:00:04.619Z,95289.00
2023-06-21T07:01:05.027Z,95291.00
2023-06-21T07:02:05.530Z,95291.00
2023-06-21T07:03:04.729Z,95291.00
2023-06-21T07:04:04.852Z,95287.00
2023-06-21T07:05:04.787Z,95287.00
2023-06-21T07:06:04.852Z,95285.00
2023-06-21T07:07:06.293Z,95287.00
2023-06-21T07:08:04.882Z,95285.00
2023-06-21T07:09:04.781Z,95283.00
2023-06-21T07:10:04.795Z,95280.00
2023-06-21T07:11:05.009Z,95282.00
2023-06-21T07:12:04.832Z,95278.00
2023-06-21T07:13:04.828Z,95278.00
2023-06-21T07:14:04.802Z,95280.00
2023-06-21T07:15:05.329Z,95280.00
2023-06-21T07:16:05.144Z,95280.00
2023-06-21T07:17:04.937Z,95283.00
2023-06-21T07:18:04.986Z,95282.00
2023-06-21T07:19:04.754Z,95283.00
2023-06-21T07:20:04.859Z,95280.00
2023-06-21T07:21:04.990Z,95282.00
2023-06-21T07:22:04.810Z,95282.00
2023-06-21T07:23:05.311Z,95280.00
2023-06-21T07:24:04.756Z,95278.00
2023-06-21T07:25:04.786Z,95274.00
2023-06-21T07:26:04.995Z,95272.00
2023-06-21T07:27:04.717Z,95270.00
2023-06-21T07:28:05.532Z,95268.00
2023-06-21T07:29:04.742Z,95262.00
2023-06-21T07:30:05.366Z,95264.00
2023-06-21T07:31:04.773Z,95260.00
2023-06-21T07:32:05.022Z,95264.00
2023-06-21T07:33:05.622Z,95262.00
2023-06-21T07:34:07.948Z,95256.00
2023-06-21T07:35:05.823Z,95256.00
2023-06-21T07:36:04.744Z,95254.00
2023-06-21T07:37:04.971Z,95252.00
2023-06-21T07:38:04.713Z,95252.00
2023-06-21T07:39:05.888Z,95250.00
2023-06-21T07:40:04.800Z,95254.00
2023-06-21T07:41:04.720Z,95246.00
2023-06-21T07:42:13.750Z,95246.00
2023-06-21T07:43:04.627Z,95246.00
2023-06-21T07:44:04.751Z,95242.00
2023-06-21T07:45:05.507Z,95242.00
2023-06-21T07:46:14.946Z,95240.00
2023-06-21T07:47:04.663Z,95236.00
2023-06-21T07:48:04.698Z,95236.00
2023-06-21T07:49:04.848Z,95236.00
2023-06-21T07:50:17.091Z,95236.00
2023-06-21T07:51:05.772Z,95235.00
2023-06-21T07:52:04.664Z,95233.00
2023-06-21T07:53:04.607Z,95233.00
2023-06-21T07:54:04.880Z,95233.00
2023-06-21T07:55:04.561Z,95235.00
2023-06-21T07:56:04.564Z,95236.00
2023-06-21T07:57:04.651Z,95233.00
2023-06-21T07:58:04.527Z,95225.00
2023-06-21T07:59:04.595Z,95225.00
2023-06-21T08:00:04.542Z,95229.00
2023-06-21T08:01:04.572Z,95223.00
2023-06-21T08:02:04.589Z,95221.00
2023-06-21T08:03:04.677Z,95221.00
2023-06-21T08:04:04.768Z,95219.00
2023-06-21T08:05:04.717Z,95217.00
2023-06-21T08:06:04.736Z,95215.00
2023-06-21T08:07:05.458Z,95215.00
2023-06-21T08:08:04.861Z,95215.00
2023-06-21T08:09:04.872Z,95211.00
2023-06-21T08:10:04.871Z,95209.00
2023-06-21T08:11:04.880Z,95209.00
2023-06-21T08:12:04.985Z,95209.00
2023-06-21T08:13:05.023Z,95209.00
2023-06-21T08:14:05.974Z,95207.00
2023-06-21T08:15:05.014Z,95205.00
2023-06-21T08:16:05.015Z,95203.00
2023-06-21T08:17:05.064Z,95201.00
2023-06-21T08:18:05.080Z,95199.00
2023-06-21T08:19:05.096Z,95201.00
2023-06-21T08:20:05.148Z,95195.00
2023-06-21T08:21:05.155Z,95195.00
2023-06-21T08:22:05.157Z,95195.00
2023-06-21T08:23:05.135Z,95193.00
2023-06-21T08:24:05.265Z,95195.00
2023-06-21T08:25:05.303Z,95191.00
2023-06-21T08:26:05.400Z,95185.00
2023-06-21T08:27:05.454Z,95187.00
2023-06-21T08:28:05.553Z,95187.00
2023-06-21T08:29:05.620Z,95187.00
2023-06-21T08:30:05.636Z,95187.00
2023-06-21T08:31:05.686Z,95183.00
2023-06-21T08:32:06.199Z,95183.00
2023-06-21T08:33:05.830Z,95180.00
2023-06-21T08:34:05.802Z,95178.00
2023-06-21T08:35:05.824Z,95180.00
2023-06-21T08:36:05.819Z,95176.00
2023-06-21T08:37:06.149Z,95172.00
2023-06-21T08:38:18.378Z,95172.00
2023-06-21T08:39:05.981Z,95174.00
2023-06-21T08:40:06.002Z,95174.00
2023-06-21T08:41:05.916Z,95176.00
2023-06-21T08:42:06.000Z,95176.00
2023-06-21T08:43:05.946Z,95172.00
2023-06-21T08:44:05.968Z,95176.00
2023-06-21T08:45:05.886Z,95174.00
2023-06-21T08:46:08.227Z,95174.00
2023-06-21T08:47:06.062Z,95172.00
2023-06-21T08:48:05.934Z,95168.00
2023-06-21T08:49:05.890Z,95164.00
2023-06-21T08:50:05.899Z,95164.00
2023-06-21T08:51:05.979Z,95158.00
2023-06-21T08:52:06.019Z,95158.00
2023-06-21T08:53:05.884Z,95156.00
2023-06-21T08:54:05.931Z,95154.00
2023-06-21T08:55:05.869Z,95150.00
2023-06-21T08:56:05.879Z,95148.00
2023-06-21T08:57:06.055Z,95148.00
2023-06-21T08:58:07.163Z,95146.00
2023-06-21T08:59:06.525Z,95150.00
2023-06-21T09:00:05.774Z,95146.00
2023-06-21T09:01:05.861Z,95146.00
2023-06-21T09:02:06.049Z,95148.00
2023-06-21T09:03:06.052Z,95144.00
2023-06-21T09:04:06.096Z,95144.00
2023-06-21T09:05:05.856Z,95144.00
2023-06-21T09:06:05.782Z,95144.00
2023-06-21T09:07:05.813Z,95146.00
2023-06-21T09:08:07.437Z,95146.00
2023-06-21T09:09:06.115Z,95144.00
2023-06-21T09:10:05.787Z,95144.00
2023-06-21T09:11:05.727Z,95146.00
2023-06-21T09:12:05.772Z,95148.00
2023-06-21T09:13:05.708Z,95146.00
2023-06-21T09:14:07.242Z,95144.00
2023-06-21T09:15:05.747Z,95152.00
2023-06-21T09:16:05.729Z,95146.00
2023-06-21T09:17:05.722Z,95144.00
2023-06-21T09:18:06.093Z,95148.00
2023-06-21T09:19:05.741Z,95148.00
2023-06-21T09:20:05.686Z,95148.00
2023-06-21T09:21:05.669Z,95146.00
2023-06-21T09:22:05.711Z,95152.00
2023-06-21T09:23:05.686Z,95146.00
2023-06-21T09:24:05.673Z,95148.00
2023-06-21T09:25:05.661Z,95148.00
2023-06-21T09:26:05.646Z,95146.00
2023-06-21T09:27:05.676Z,95148.00
2023-06-21T09:28:06.025Z,95150.00
2023-06-21T09:29:05.602Z,95150.00
2023-06-21T09:30:29.583Z,95150.00
2023-06-21T09:31:06.665Z,95150.00
2023-06-21T09:32:05.640Z,95150.00
2023-06-21T09:33:05.763Z,95152.00
2023-06-21T09:34:05.683Z,95154.00
2023-06-21T09:35:05.670Z,95150.00
2023-06-21T09:36:05.747Z,95150.00
2023-06-21T09:37:05.618Z,95150.00
2023-06-21T09:38:06.106Z,95148.00
2023-06-21T09:39:05.584Z,95148.00
2023-06-21T09:40:05.610Z,95150.00
2023-06-21T09:41:05.741Z,95156.00
2023-06-21T09:42:05.592Z,95154.00
2023-06-21T09:43:06.047Z,95152.00
2023-06-21T09:44:05.612Z,95154.00
2023-06-21T09:45:05.704Z,95150.00
2023-06-21T09:46:05.744Z,95152.00
2023-06-21T09:47:05.738Z,95152.00
2023-06-21T09:48:06.107Z,95152.00
2023-06-21T09:49:05.787Z,95152.00
2023-06-21T09:50:05.817Z,95158.00
2023-06-21T09:51:05.901Z,95158.00
2023-06-21T09:52:05.902Z,95154.00
2023-06-21T09:53:05.938Z,95158.00
2023-06-21T09:54:06.001Z,95154.00
2023-06-21T09:55:06.013Z,95154.00
2023-06-21T09:56:05.999Z,95154.00
2023-06-21T09:57:06.005Z,95150.00
2023-06-21T09:58:06.033Z,95154.00
2023-06-21T09:59:06.142Z,95150.00
2023-06-21T10:00:06.136Z,95152.00
2023-06-21T10:01:06.140Z,95150.00
2023-06-21T10:02:06.157Z,95150.00
2023-06-21T10:03:06.658Z,95148.00
2023-06-21T10:04:07.196Z,95148.00
2023-06-21T10:05:06.186Z,95148.00
2023-06-21T10:06:06.240Z,95146.00
2023-06-21T10:07:06.202Z,95144.00
2023-06-21T10:08:06.589Z,95142.00
2023-06-21T10:09:06.353Z,95146.00
2023-06-21T10:10:06.323Z,95144.00
2023-06-21T10:11:06.392Z,95146.00
2023-06-21T10:12:06.373Z,95148.00
2023-06-21T10:13:06.551Z,95148.00
2023-06-21T10:14:06.443Z,95150.00
2023-06-21T10:15:06.476Z,95150.00
2023-06-21T10:16:06.459Z,95154.00
2023-06-21T10:17:06.532Z,95144.00
2023-06-21T10:18:07.127Z,95146.00
2023-06-21T10:19:06.584Z,95146.00
2023-06-21T10:20:06.694Z,95144.00
2023-06-21T10:21:06.825Z,95142.00
2023-06-21T10:22:06.783Z,95144.00
2023-06-21T10:23:06.933Z,95142.00
2023-06-21T10:24:06.856Z,95142.00
2023-06-21T10:25:06.977Z,95142.00
2023-06-21T10:26:07.030Z,95134.00
2023-06-21T10:27:07.059Z,95132.00
2023-06-21T10:28:07.640Z,95134.00
2023-06-21T10:29:07.151Z,95142.00
2023-06-21T10:30:07.196Z,95142.00
2023-06-21T10:31:07.244Z,95134.00
2023-06-21T10:32:07.298Z,95134.00
2023-06-21T10:33:07.663Z,95132.00
2023-06-21T10:34:07.390Z,95134.00
2023-06-21T10:35:07.370Z,95132.00
2023-06-21T10:36:07.407Z,95128.00
2023-06-21T10:37:07.626Z,95130.00
2023-06-21T10:38:07.474Z,95125.00
2023-06-21T10:39:07.611Z,95127.00
2023-06-21T10:40:11.672Z,95125.00
2023-06-21T10:41:07.639Z,95125.00
2023-06-21T10:42:07.413Z,95121.00
2023-06-21T10:43:07.366Z,95123.00
2023-06-21T10:44:07.606Z,95121.00
2023-06-21T10:45:07.377Z,95121.00
2023-06-21T10:46:07.449Z,95125.00
2023-06-21T10:47:07.371Z,95123.00
2023-06-21T10:48:07.387Z,95121.00
2023-06-21T10:49:07.618Z,95123.00
2023-06-21T10:50:07.327Z,95121.00
2023-06-21T10:51:07.331Z,95119.00
2023-06-21T10:52:07.432Z,95117.00
2023-06-21T10:53:07.427Z,95111.00
2023-06-21T10:54:07.555Z,95115.00
2023-06-21T10:55:07.459Z,95115.00
2023-06-21T10:56:07.407Z,95113.00
2023-06-21T10:57:07.460Z,95113.00
2023-06-21T10:58:07.667Z,95113.00
2023-06-21T10:59:07.533Z,95109.00
2023-06-21T11:00:07.578Z,95103.00
2023-06-21T11:01:07.614Z,95101.00
2023-06-21T11:02:07.631Z,95105.00
2023-06-21T11:03:07.735Z,95105.00
2023-06-21T11:04:08.118Z,95105.00
2023-06-21T11:05:07.821Z,95101.00
2023-06-21T11:06:07.777Z,95099.00
2023-06-21T11:07:07.829Z,95105.00
2023-06-21T11:08:07.825Z,95103.00
2023-06-21T11:09:08.099Z,95101.00
2023-06-21T11:10:07.800Z,95105.00
2023-06-21T11:11:07.775Z,95099.00
2023-06-21T11:12:07.999Z,95095.00
2023-06-21T11:13:08.923Z,95101.00
2023-06-21T11:14:07.791Z,95095.00
2023-06-21T11:15:07.794Z,95101.00
2023-06-21T11:16:07.824Z,95101.00
2023-06-21T11:17:07.759Z,95099.00
2023-06-21T11:18:07.797Z,95105.00
2023-06-21T11:19:07.762Z,95095.00
2023-06-21T11:20:07.738Z,95097.00
2023-06-21T11:21:07.760Z,95099.00
2023-06-21T11:22:09.004Z,95095.00
2023-06-21T11:23:08.804Z,95105.00
2023-06-21T11:24:07.880Z,95109.00
2023-06-21T11:25:07.818Z,95103.00
2023-06-21T11:26:07.675Z,95101.00
2023-06-21T11:27:07.696Z,95101.00
2023-06-21T11:28:07.690Z,95101.00
2023-06-21T11:29:08.134Z,95101.00
2023-06-21T11:30:07.744Z,95097.00
2023-06-21T11:31:07.944Z,95095.00
2023-06-21T11:32:08.448Z,95093.00
2023-06-21T11:33:07.744Z,95095.00
2023-06-21T11:34:08.080Z,95093.00
2023-06-21T11:35:07.733Z,95095.00
2023-06-21T11:36:08.574Z,95089.00
2023-06-21T11:37:07.727Z,95095.00
2023-06-21T11:38:07.706Z,95091.00
2023-06-21T11:39:07.714Z,95093.00
2023-06-21T11:40:07.698Z,95097.00
2023-06-21T11:41:07.673Z,95097.00
2023-06-21T11:42:07.669Z,95097.00
2023-06-21T11:43:07.686Z,95097.00
2023-06-21T11:44:07.733Z,95097.00
2023-06-21T11:45:07.737Z,95097.00
2023-06-21T11:46:07.761Z,95097.00
2023-06-21T11:47:07.734Z,95097.00
2023-06-21T11:48:07.887Z,95093.00
2023-06-21T11:49:08.577Z,95091.00
2023-06-21T11:50:07.780Z,95089.00
2023-06-21T11:51:07.852Z,95085.00
2023-06-21T11:52:07.848Z,95083.00